Terminal Aerodrome Forecast
Issued by NWS

Home | Current Version | Previous Version | Text Only | Print | Product List | Glossary On
Versions: 1 2 3 4 5 6 7 8 9 10 11 12 13 14 15
000
FTUS43 KICT 231700
TAFSLN
TAF
KSLN 231735Z 2318/2418 19026G35KT P6SM VCSH SCT050 BKN250
     FM232100 17022G30KT P6SM SCT050 BKN250
     FM240200 19018KT P6SM VCTS SCT030CB BKN080
     FM240500 20018KT P6SM TSRA BKN030CB
     FM240800 26017KT P6SM VCTS BKN030CB
     FM241000 33021G30KT P6SM VCSH BKN025
     FM241600 33015KT P6SM SCT025 BKN080=

USA.gov is the U.S. government's official web portal to all federal, state and local government web resources and services.